Weather observations for the past three days for
Angleton / Lake Jackson, Brazoria County Airport
Metric (Imperial)
Date Time (cdt) Wind (kph) Vis. (km) Weather Sky Cond. Temperature (ºC) Relative Humidity Wind Chill (°C) Heat Index (°C) Pressure Precipitation (cm)
Air Dwpt 6 hour altimeter (cm) sea level (mb) 1 hr 3 hr 6 hr
Max. Min.
03 05:53 Calm 16.09 Fair CLR 26.7 24.4 87% 30 76 1013.2
03 04:53 Calm 16.09 Fair CLR 27.8 25 85% 32 76 1013.2
03 03:53 Calm 16.09 Partly Cloudy SCT024 28.3 25.6 85% 34 76.02 1013.5
03 02:53 Calm 16.09 Fair CLR 27.8 25 85% 32 76 1013.2
03 01:53 Calm 16.09 Fair CLR 28.3 25 82% 33 76.02 1013.5
03 00:53 Calm 16.09 Fair CLR 28.9 25 30.6 28.3 80% 34 76.05 1014.0
02 23:53 S 15 16.09 Fair CLR 28.9 25 80% 34 76.07 1014.2
02 22:53 S 15 16.09 Fair CLR 29.4 25 77% 35 76.1 1014.4
02 21:53 S 17 16.09 Fair CLR 28.9 25 80% 34 76.05 1013.8
02 20:53 S 15 16.09 Fair CLR 28.9 25.6 82% 35 76 1013.0
02 19:53 S 19 16.09 Fair CLR 29.4 25.6 80% 36 75.97 1012.8
02 18:53 S 24 16.09 Fair CLR 30.6 24.4 35 30.6 70% 36 75.95 1012.6
02 17:53 S 22 16.09 Fair CLR 31.7 22.8 59% 36 75.95 1012.4
02 16:53 S 30 16.09 Fair CLR 33.9 22.2 50% 38 75.95 1012.5
02 15:53 S 26 G 35 16.09 Fair CLR 33.9 22.2 50% 38 75.97 1012.8
02 14:53 S 19 16.09 A Few Clouds FEW047 34.4 22.2 49% 39 76.02 1013.3
02 13:53 SW 19 11.27 Fair CLR 34.4 22.2 49% 39 76.05 1013.9
02 12:53 SW 15 2.82 Partly Cloudy with Haze FEW040 SCT050 33.9 23.9 33.9 25 56% 40 76.12 1014.8
02 11:53 Calm 0.00 A Few Clouds FEW034 FEW120 32.8 25 64% 40 76.17 1015.4
02 09:53 Vrbl 7 12.87 NULL NULL 0 0 0% 76.17 1015.7
02 08:53 SW 7 16.09 Fair CLR 28.3 25.6 85% 34 76.15 1015.0
02 07:53 Calm 16.09 Fair CLR 25.6 23.9 90% 27 76.12 1014.9
02 06:53 SW 6 16.09 Fair CLR 25 22.8 27.8 25 88% 26 76.07 1014.0
02 05:53 SW 11 16.09 Partly Cloudy SCT022 SCT030 26.7 22.8 79% 29 76.07 1014.2
02 04:53 SW 7 16.09 Fair CLR 27.8 25 85% 32 76.05 1013.7
02 03:53 S 15 16.09 Fair CLR 27.8 25 85% 32 76.02 1013.6
02 02:53 S 9 16.09 Fair CLR 26.7 25 90% 30 76.07 1014.0
02 01:53 S 11 16.09 Fair CLR 26.7 25 90% 30 76.07 1014.1
02 00:53 SW 7 16.09 Fair CLR 26.7 24.4 30 26.7 87% 30 76.07 1014.1
01 23:53 S 11 16.09 Fair CLR 26.7 24.4 87% 30 76.07 1014.0
01 22:53 SW 7 16.09 Fair CLR 26.7 25 90% 30 76.07 1014.1
01 21:53 SW 9 16.09 Fair CLR 26.7 24.4 87% 30 76.05 1013.6
01 20:53 S 11 16.09 Fair CLR 26.7 24.4 87% 30 75.97 1012.8
Date Time (cdt) Wind (kph) Vis. (km) Weather Sky Cond. Air Dwpt Max. Min. Relative Humidity Wind Chill (°C) Heat Index (°C) altimeter (cm) sea level (mb) 1 hr 3 hr 6 hr
6 hour
Temperature (ºC) Pressure Precipitation (cm)